sensor_id;sensor_type;location;lat;lon;timestamp;P1;durP1;ratioP1;P2;durP2;ratioP2
24383;SDS011;12504;52.870;8.798;2023-11-21T00:01:57;24.38;;;9.98;;
24383;SDS011;12504;52.870;8.798;2023-11-21T00:04:23;24.77;;;10.43;;
24383;SDS011;12504;52.870;8.798;2023-11-21T00:06:49;27.23;;;10.82;;
24383;SDS011;12504;52.870;8.798;2023-11-21T00:09:15;27.95;;;10.57;;
24383;SDS011;12504;52.870;8.798;2023-11-21T00:11:42;29.60;;;10.77;;
24383;SDS011;12504;52.870;8.798;2023-11-21T00:14:09;31.23;;;11.30;;
24383;SDS011;12504;52.870;8.798;2023-11-21T00:16:36;32.85;;;11.43;;
24383;SDS011;12504;52.870;8.798;2023-11-21T00:19:01;30.23;;;11.73;;
24383;SDS011;12504;52.870;8.798;2023-11-21T00:21:27;29.35;;;12.13;;
24383;SDS011;12504;52.870;8.798;2023-11-21T00:23:52;32.13;;;13.25;;
24383;SDS011;12504;52.870;8.798;2023-11-21T00:26:18;29.25;;;11.75;;
24383;SDS011;12504;52.870;8.798;2023-11-21T00:28:50;31.13;;;11.85;;
24383;SDS011;12504;52.870;8.798;2023-11-21T00:31:16;27.58;;;12.05;;
24383;SDS011;12504;52.870;8.798;2023-11-21T00:33:42;30.70;;;11.98;;
24383;SDS011;12504;52.870;8.798;2023-11-21T00:36:08;28.05;;;11.88;;
24383;SDS011;12504;52.870;8.798;2023-11-21T00:38:34;25.77;;;10.82;;
24383;SDS011;12504;52.870;8.798;2023-11-21T00:41:01;27.52;;;10.80;;
24383;SDS011;12504;52.870;8.798;2023-11-21T00:43:27;29.00;;;11.27;;
24383;SDS011;12504;52.870;8.798;2023-11-21T00:45:53;34.17;;;11.45;;
24383;SDS011;12504;52.870;8.798;2023-11-21T00:48:19;28.65;;;11.75;;
24383;SDS011;12504;52.870;8.798;2023-11-21T00:50:45;30.30;;;12.90;;
24383;SDS011;12504;52.870;8.798;2023-11-21T00:53:10;33.45;;;12.70;;
24383;SDS011;12504;52.870;8.798;2023-11-21T00:55:36;30.27;;;12.30;;
24383;SDS011;12504;52.870;8.798;2023-11-21T00:58:05;22.63;;;11.35;;
24383;SDS011;12504;52.870;8.798;2023-11-21T01:00:32;36.28;;;12.98;;
24383;SDS011;12504;52.870;8.798;2023-11-21T01:02:58;28.15;;;11.70;;
24383;SDS011;12504;52.870;8.798;2023-11-21T01:05:24;39.95;;;12.95;;
24383;SDS011;12504;52.870;8.798;2023-11-21T01:07:50;34.40;;;13.57;;
24383;SDS011;12504;52.870;8.798;2023-11-21T01:10:16;34.60;;;12.43;;
24383;SDS011;12504;52.870;8.798;2023-11-21T01:12:42;32.20;;;12.50;;
24383;SDS011;12504;52.870;8.798;2023-11-21T01:15:08;35.40;;;13.32;;
24383;SDS011;12504;52.870;8.798;2023-11-21T01:17:34;31.58;;;14.35;;
24383;SDS011;12504;52.870;8.798;2023-11-21T01:20:01;32.70;;;13.55;;
24383;SDS011;12504;52.870;8.798;2023-11-21T01:22:28;30.42;;;13.57;;
24383;SDS011;12504;52.870;8.798;2023-11-21T01:24:53;32.40;;;13.68;;
24383;SDS011;12504;52.870;8.798;2023-11-21T01:27:19;33.35;;;14.38;;
24383;SDS011;12504;52.870;8.798;2023-11-21T01:29:45;29.20;;;14.05;;
24383;SDS011;12504;52.870;8.798;2023-11-21T01:32:11;40.10;;;13.55;;
24383;SDS011;12504;52.870;8.798;2023-11-21T01:34:37;33.05;;;13.65;;
24383;SDS011;12504;52.870;8.798;2023-11-21T01:37:03;38.97;;;13.05;;
24383;SDS011;12504;52.870;8.798;2023-11-21T01:39:30;32.97;;;13.82;;
24383;SDS011;12504;52.870;8.798;2023-11-21T01:41:56;35.50;;;13.50;;
24383;SDS011;12504;52.870;8.798;2023-11-21T01:44:25;46.20;;;14.82;;
24383;SDS011;12504;52.870;8.798;2023-11-21T01:46:50;32.88;;;13.38;;
24383;SDS011;12504;52.870;8.798;2023-11-21T01:49:17;31.67;;;13.95;;
24383;SDS011;12504;52.870;8.798;2023-11-21T01:51:47;37.40;;;14.15;;
24383;SDS011;12504;52.870;8.798;2023-11-21T01:54:15;37.17;;;15.13;;
24383;SDS011;12504;52.870;8.798;2023-11-21T01:56:45;32.83;;;12.48;;
24383;SDS011;12504;52.870;8.798;2023-11-21T01:59:12;35.72;;;14.30;;
24383;SDS011;12504;52.870;8.798;2023-11-21T02:01:41;36.22;;;14.40;;
24383;SDS011;12504;52.870;8.798;2023-11-21T02:04:06;32.47;;;13.35;;
24383;SDS011;12504;52.870;8.798;2023-11-21T02:06:34;29.75;;;13.25;;
24383;SDS011;12504;52.870;8.798;2023-11-21T02:08:59;42.28;;;15.63;;
24383;SDS011;12504;52.870;8.798;2023-11-21T02:11:26;36.10;;;13.10;;
24383;SDS011;12504;52.870;8.798;2023-11-21T02:13:52;36.10;;;14.90;;
24383;SDS011;12504;52.870;8.798;2023-11-21T02:16:19;36.53;;;14.45;;
24383;SDS011;12504;52.870;8.798;2023-11-21T02:18:46;36.08;;;14.85;;
24383;SDS011;12504;52.870;8.798;2023-11-21T02:21:13;35.55;;;14.63;;
24383;SDS011;12504;52.870;8.798;2023-11-21T02:23:39;39.47;;;15.80;;
24383;SDS011;12504;52.870;8.798;2023-11-21T02:26:09;49.40;;;14.95;;
24383;SDS011;12504;52.870;8.798;2023-11-21T02:28:36;35.47;;;15.38;;
24383;SDS011;12504;52.870;8.798;2023-11-21T02:31:02;45.92;;;17.83;;
24383;SDS011;12504;52.870;8.798;2023-11-21T02:33:29;38.28;;;15.63;;
24383;SDS011;12504;52.870;8.798;2023-11-21T02:35:57;41.42;;;14.98;;
24383;SDS011;12504;52.870;8.798;2023-11-21T02:38:24;41.28;;;17.95;;
24383;SDS011;12504;52.870;8.798;2023-11-21T02:40:50;48.92;;;19.88;;
24383;SDS011;12504;52.870;8.798;2023-11-21T02:43:15;48.67;;;18.33;;
24383;SDS011;12504;52.870;8.798;2023-11-21T02:45:41;48.95;;;18.30;;
24383;SDS011;12504;52.870;8.798;2023-11-21T02:48:07;45.15;;;19.40;;
24383;SDS011;12504;52.870;8.798;2023-11-21T02:50:32;51.33;;;19.70;;
24383;SDS011;12504;52.870;8.798;2023-11-21T02:53:00;57.22;;;18.63;;
24383;SDS011;12504;52.870;8.798;2023-11-21T02:55:26;51.00;;;17.80;;
24383;SDS011;12504;52.870;8.798;2023-11-21T02:57:53;42.50;;;17.27;;
24383;SDS011;12504;52.870;8.798;2023-11-21T03:00:18;46.90;;;18.50;;
24383;SDS011;12504;52.870;8.798;2023-11-21T03:02:44;44.30;;;18.85;;
24383;SDS011;12504;52.870;8.798;2023-11-21T03:05:12;42.92;;;16.00;;
24383;SDS011;12504;52.870;8.798;2023-11-21T03:07:38;43.97;;;18.48;;
24383;SDS011;12504;52.870;8.798;2023-11-21T03:10:05;45.15;;;17.95;;
24383;SDS011;12504;52.870;8.798;2023-11-21T03:12:34;49.90;;;17.00;;
24383;SDS011;12504;52.870;8.798;2023-11-21T03:14:59;50.80;;;17.98;;
24383;SDS011;12504;52.870;8.798;2023-11-21T03:17:27;49.80;;;16.60;;
24383;SDS011;12504;52.870;8.798;2023-11-21T03:19:54;40.65;;;15.88;;
24383;SDS011;12504;52.870;8.798;2023-11-21T03:22:19;41.13;;;17.13;;
24383;SDS011;12504;52.870;8.798;2023-11-21T03:24:45;45.33;;;16.48;;
24383;SDS011;12504;52.870;8.798;2023-11-21T03:27:11;38.55;;;15.38;;
24383;SDS011;12504;52.870;8.798;2023-11-21T03:29:37;43.00;;;16.08;;
24383;SDS011;12504;52.870;8.798;2023-11-21T03:32:03;47.72;;;16.73;;
24383;SDS011;12504;52.870;8.798;2023-11-21T03:34:29;45.15;;;17.38;;
24383;SDS011;12504;52.870;8.798;2023-11-21T03:36:55;43.15;;;17.35;;
24383;SDS011;12504;52.870;8.798;2023-11-21T03:39:20;45.03;;;15.50;;
24383;SDS011;12504;52.870;8.798;2023-11-21T03:41:48;50.47;;;17.40;;
24383;SDS011;12504;52.870;8.798;2023-11-21T03:44:15;42.08;;;16.85;;
24383;SDS011;12504;52.870;8.798;2023-11-21T03:46:40;44.17;;;15.27;;
24383;SDS011;12504;52.870;8.798;2023-11-21T03:49:06;44.95;;;15.57;;
24383;SDS011;12504;52.870;8.798;2023-11-21T03:51:33;42.13;;;17.88;;
24383;SDS011;12504;52.870;8.798;2023-11-21T03:54:00;41.60;;;15.45;;
24383;SDS011;12504;52.870;8.798;2023-11-21T03:56:26;46.35;;;17.35;;
24383;SDS011;12504;52.870;8.798;2023-11-21T03:58:52;40.55;;;14.25;;
24383;SDS011;12504;52.870;8.798;2023-11-21T04:01:21;43.40;;;15.45;;
24383;SDS011;12504;52.870;8.798;2023-11-21T04:03:48;37.20;;;15.18;;
24383;SDS011;12504;52.870;8.798;2023-11-21T04:06:16;37.95;;;14.48;;
24383;SDS011;12504;52.870;8.798;2023-11-21T04:08:42;38.60;;;15.50;;
24383;SDS011;12504;52.870;8.798;2023-11-21T04:11:09;33.08;;;13.93;;
24383;SDS011;12504;52.870;8.798;2023-11-21T04:13:37;41.42;;;15.40;;
24383;SDS011;12504;52.870;8.798;2023-11-21T04:16:04;41.25;;;13.90;;
24383;SDS011;12504;52.870;8.798;2023-11-21T04:18:35;45.95;;;15.25;;
24383;SDS011;12504;52.870;8.798;2023-11-21T04:21:02;32.22;;;13.27;;
24383;SDS011;12504;52.870;8.798;2023-11-21T04:23:29;32.92;;;11.55;;
24383;SDS011;12504;52.870;8.798;2023-11-21T04:25:56;31.85;;;12.25;;
24383;SDS011;12504;52.870;8.798;2023-11-21T04:28:23;28.40;;;11.23;;
24383;SDS011;12504;52.870;8.798;2023-11-21T04:30:49;24.45;;;9.32;;
24383;SDS011;12504;52.870;8.798;2023-11-21T04:33:15;34.38;;;11.13;;
24383;SDS011;12504;52.870;8.798;2023-11-21T04:35:41;23.08;;;10.57;;
24383;SDS011;12504;52.870;8.798;2023-11-21T04:38:07;23.65;;;9.02;;
24383;SDS011;12504;52.870;8.798;2023-11-21T04:40:32;23.63;;;9.13;;
24383;SDS011;12504;52.870;8.798;2023-11-21T04:42:58;19.35;;;7.90;;
24383;SDS011;12504;52.870;8.798;2023-11-21T04:45:24;16.70;;;7.93;;
24383;SDS011;12504;52.870;8.798;2023-11-21T04:47:49;17.02;;;7.28;;
24383;SDS011;12504;52.870;8.798;2023-11-21T04:50:15;18.90;;;6.78;;
24383;SDS011;12504;52.870;8.798;2023-11-21T04:52:41;13.55;;;5.57;;
24383;SDS011;12504;52.870;8.798;2023-11-21T04:55:06;14.75;;;5.43;;
24383;SDS011;12504;52.870;8.798;2023-11-21T04:57:35;10.05;;;4.95;;
24383;SDS011;12504;52.870;8.798;2023-11-21T05:00:01;12.82;;;4.85;;
24383;SDS011;12504;52.870;8.798;2023-11-21T05:02:31;13.10;;;4.63;;
24383;SDS011;12504;52.870;8.798;2023-11-21T05:04:59;8.20;;;3.95;;
24383;SDS011;12504;52.870;8.798;2023-11-21T05:07:25;9.00;;;4.32;;
24383;SDS011;12504;52.870;8.798;2023-11-21T05:09:54;8.15;;;4.15;;
24383;SDS011;12504;52.870;8.798;2023-11-21T05:12:21;11.15;;;4.55;;
24383;SDS011;12504;52.870;8.798;2023-11-21T05:14:50;11.05;;;4.60;;
24383;SDS011;12504;52.870;8.798;2023-11-21T05:17:16;11.40;;;4.38;;
24383;SDS011;12504;52.870;8.798;2023-11-21T05:19:42;11.15;;;5.10;;
24383;SDS011;12504;52.870;8.798;2023-11-21T05:22:10;11.35;;;4.90;;
24383;SDS011;12504;52.870;8.798;2023-11-21T05:24:37;9.07;;;4.68;;
24383;SDS011;12504;52.870;8.798;2023-11-21T05:27:04;11.52;;;4.97;;
24383;SDS011;12504;52.870;8.798;2023-11-21T05:29:29;28.63;;;9.02;;
24383;SDS011;12504;52.870;8.798;2023-11-21T05:31:55;22.70;;;9.15;;
24383;SDS011;12504;52.870;8.798;2023-11-21T05:34:21;26.85;;;10.30;;
24383;SDS011;12504;52.870;8.798;2023-11-21T05:36:48;29.33;;;9.55;;
24383;SDS011;12504;52.870;8.798;2023-11-21T05:39:15;28.23;;;10.00;;
24383;SDS011;12504;52.870;8.798;2023-11-21T05:41:42;23.75;;;8.88;;
24383;SDS011;12504;52.870;8.798;2023-11-21T05:44:08;27.10;;;9.00;;
24383;SDS011;12504;52.870;8.798;2023-11-21T05:46:34;19.55;;;8.27;;
24383;SDS011;12504;52.870;8.798;2023-11-21T05:49:00;18.55;;;8.05;;
24383;SDS011;12504;52.870;8.798;2023-11-21T05:51:25;17.27;;;7.07;;
24383;SDS011;12504;52.870;8.798;2023-11-21T05:53:51;17.88;;;6.95;;
24383;SDS011;12504;52.870;8.798;2023-11-21T05:56:16;20.77;;;7.95;;
24383;SDS011;12504;52.870;8.798;2023-11-21T05:58:43;19.17;;;7.43;;
24383;SDS011;12504;52.870;8.798;2023-11-21T06:01:09;23.80;;;8.50;;
24383;SDS011;12504;52.870;8.798;2023-11-21T06:03:37;22.33;;;8.48;;
24383;SDS011;12504;52.870;8.798;2023-11-21T06:06:03;22.25;;;8.88;;
24383;SDS011;12504;52.870;8.798;2023-11-21T06:08:29;19.17;;;7.75;;
24383;SDS011;12504;52.870;8.798;2023-11-21T06:10:55;18.92;;;8.73;;
24383;SDS011;12504;52.870;8.798;2023-11-21T06:13:21;27.00;;;9.48;;
24383;SDS011;12504;52.870;8.798;2023-11-21T06:15:49;20.98;;;8.85;;
24383;SDS011;12504;52.870;8.798;2023-11-21T06:18:15;20.58;;;9.27;;
24383;SDS011;12504;52.870;8.798;2023-11-21T06:20:41;24.70;;;8.27;;
24383;SDS011;12504;52.870;8.798;2023-11-21T06:23:06;17.92;;;8.35;;
24383;SDS011;12504;52.870;8.798;2023-11-21T06:25:34;27.80;;;10.02;;
24383;SDS011;12504;52.870;8.798;2023-11-21T06:28:01;25.10;;;9.00;;
24383;SDS011;12504;52.870;8.798;2023-11-21T06:30:26;22.27;;;8.32;;
24383;SDS011;12504;52.870;8.798;2023-11-21T06:32:54;21.05;;;9.30;;
24383;SDS011;12504;52.870;8.798;2023-11-21T06:35:20;17.25;;;8.45;;
24383;SDS011;12504;52.870;8.798;2023-11-21T06:37:46;22.90;;;8.45;;
24383;SDS011;12504;52.870;8.798;2023-11-21T06:40:13;21.27;;;8.48;;
24383;SDS011;12504;52.870;8.798;2023-11-21T06:42:43;22.77;;;10.02;;
24383;SDS011;12504;52.870;8.798;2023-11-21T06:45:09;21.67;;;9.23;;
24383;SDS011;12504;52.870;8.798;2023-11-21T06:47:36;24.10;;;9.13;;
24383;SDS011;12504;52.870;8.798;2023-11-21T06:50:03;24.85;;;10.10;;
24383;SDS011;12504;52.870;8.798;2023-11-21T06:52:29;20.13;;;8.95;;
24383;SDS011;12504;52.870;8.798;2023-11-21T06:54:55;21.13;;;8.63;;
24383;SDS011;12504;52.870;8.798;2023-11-21T06:57:24;23.45;;;8.48;;
24383;SDS011;12504;52.870;8.798;2023-11-21T06:59:50;19.60;;;9.18;;
24383;SDS011;12504;52.870;8.798;2023-11-21T07:02:16;21.55;;;9.02;;
24383;SDS011;12504;52.870;8.798;2023-11-21T07:04:44;24.55;;;8.63;;
24383;SDS011;12504;52.870;8.798;2023-11-21T07:07:11;19.38;;;9.05;;
24383;SDS011;12504;52.870;8.798;2023-11-21T07:09:37;25.10;;;9.88;;
24383;SDS011;12504;52.870;8.798;2023-11-21T07:12:03;26.08;;;10.52;;
24383;SDS011;12504;52.870;8.798;2023-11-21T07:14:31;20.83;;;8.68;;
24383;SDS011;12504;52.870;8.798;2023-11-21T07:16:57;21.10;;;9.63;;
24383;SDS011;12504;52.870;8.798;2023-11-21T07:19:23;21.83;;;9.77;;
24383;SDS011;12504;52.870;8.798;2023-11-21T07:21:49;24.08;;;9.95;;
24383;SDS011;12504;52.870;8.798;2023-11-21T07:24:16;22.48;;;9.52;;
24383;SDS011;12504;52.870;8.798;2023-11-21T07:26:42;22.98;;;9.02;;
24383;SDS011;12504;52.870;8.798;2023-11-21T07:29:08;19.42;;;9.50;;
24383;SDS011;12504;52.870;8.798;2023-11-21T07:31:34;21.80;;;9.10;;
24383;SDS011;12504;52.870;8.798;2023-11-21T07:34:00;28.85;;;10.25;;
24383;SDS011;12504;52.870;8.798;2023-11-21T07:36:26;19.48;;;9.00;;
24383;SDS011;12504;52.870;8.798;2023-11-21T07:38:54;23.25;;;9.93;;
24383;SDS011;12504;52.870;8.798;2023-11-21T07:41:20;21.63;;;8.23;;
24383;SDS011;12504;52.870;8.798;2023-11-21T07:43:47;23.00;;;9.60;;
24383;SDS011;12504;52.870;8.798;2023-11-21T07:46:13;21.27;;;8.27;;
24383;SDS011;12504;52.870;8.798;2023-11-21T07:48:40;20.33;;;8.27;;
24383;SDS011;12504;52.870;8.798;2023-11-21T07:51:07;23.17;;;9.90;;
24383;SDS011;12504;52.870;8.798;2023-11-21T07:53:33;23.60;;;9.38;;
24383;SDS011;12504;52.870;8.798;2023-11-21T07:56:03;24.33;;;9.88;;
24383;SDS011;12504;52.870;8.798;2023-11-21T07:58:29;21.13;;;9.82;;
24383;SDS011;12504;52.870;8.798;2023-11-21T08:00:56;20.05;;;8.93;;
24383;SDS011;12504;52.870;8.798;2023-11-21T08:03:22;22.27;;;9.50;;
24383;SDS011;12504;52.870;8.798;2023-11-21T08:05:48;21.35;;;8.90;;
24383;SDS011;12504;52.870;8.798;2023-11-21T08:08:14;23.33;;;10.43;;
24383;SDS011;12504;52.870;8.798;2023-11-21T08:10:43;23.13;;;9.65;;
24383;SDS011;12504;52.870;8.798;2023-11-21T08:13:21;25.25;;;10.40;;
24383;SDS011;12504;52.870;8.798;2023-11-21T08:15:47;20.45;;;10.25;;
24383;SDS011;12504;52.870;8.798;2023-11-21T08:18:13;21.27;;;9.60;;
24383;SDS011;12504;52.870;8.798;2023-11-21T08:20:40;22.90;;;9.90;;
24383;SDS011;12504;52.870;8.798;2023-11-21T08:23:06;20.80;;;9.77;;
24383;SDS011;12504;52.870;8.798;2023-11-21T08:25:32;20.80;;;9.75;;
24383;SDS011;12504;52.870;8.798;2023-11-21T08:27:59;23.00;;;9.35;;
24383;SDS011;12504;52.870;8.798;2023-11-21T08:30:26;23.50;;;10.20;;
24383;SDS011;12504;52.870;8.798;2023-11-21T08:32:55;22.65;;;9.98;;
24383;SDS011;12504;52.870;8.798;2023-11-21T08:35:23;21.42;;;9.70;;
24383;SDS011;12504;52.870;8.798;2023-11-21T08:37:52;20.80;;;9.55;;
24383;SDS011;12504;52.870;8.798;2023-11-21T08:40:19;22.15;;;9.95;;
24383;SDS011;12504;52.870;8.798;2023-11-21T08:42:46;24.02;;;10.48;;
24383;SDS011;12504;52.870;8.798;2023-11-21T08:45:13;22.83;;;9.88;;
24383;SDS011;12504;52.870;8.798;2023-11-21T08:47:39;23.88;;;10.02;;
24383;SDS011;12504;52.870;8.798;2023-11-21T08:50:06;20.45;;;9.27;;
24383;SDS011;12504;52.870;8.798;2023-11-21T08:52:33;23.27;;;10.82;;
24383;SDS011;12504;52.870;8.798;2023-11-21T08:54:59;17.17;;;8.30;;
24383;SDS011;12504;52.870;8.798;2023-11-21T08:57:32;20.17;;;9.80;;
24383;SDS011;12504;52.870;8.798;2023-11-21T08:59:58;18.65;;;7.78;;
24383;SDS011;12504;52.870;8.798;2023-11-21T09:02:27;20.55;;;8.68;;
24383;SDS011;12504;52.870;8.798;2023-11-21T09:04:54;19.73;;;8.45;;
24383;SDS011;12504;52.870;8.798;2023-11-21T09:07:20;18.50;;;8.82;;
24383;SDS011;12504;52.870;8.798;2023-11-21T09:09:49;19.90;;;10.00;;
24383;SDS011;12504;52.870;8.798;2023-11-21T09:12:19;19.15;;;9.07;;
24383;SDS011;12504;52.870;8.798;2023-11-21T09:14:48;18.67;;;9.40;;
24383;SDS011;12504;52.870;8.798;2023-11-21T09:17:15;20.00;;;8.60;;
24383;SDS011;12504;52.870;8.798;2023-11-21T09:19:41;24.10;;;8.45;;
24383;SDS011;12504;52.870;8.798;2023-11-21T09:22:08;19.80;;;8.75;;
24383;SDS011;12504;52.870;8.798;2023-11-21T09:24:34;14.88;;;7.43;;
24383;SDS011;12504;52.870;8.798;2023-11-21T09:27:00;17.92;;;8.50;;
24383;SDS011;12504;52.870;8.798;2023-11-21T09:29:27;15.60;;;6.93;;
24383;SDS011;12504;52.870;8.798;2023-11-21T09:31:53;18.52;;;9.02;;
24383;SDS011;12504;52.870;8.798;2023-11-21T09:34:20;18.35;;;8.95;;
24383;SDS011;12504;52.870;8.798;2023-11-21T09:36:46;13.73;;;7.45;;
24383;SDS011;12504;52.870;8.798;2023-11-21T09:39:13;19.60;;;8.52;;
24383;SDS011;12504;52.870;8.798;2023-11-21T09:44:13;11.75;;;7.18;;
24383;SDS011;12504;52.870;8.798;2023-11-21T09:46:40;20.92;;;8.35;;
24383;SDS011;12504;52.870;8.798;2023-11-21T09:49:09;17.35;;;8.27;;
24383;SDS011;12504;52.870;8.798;2023-11-21T09:51:39;18.27;;;8.27;;
24383;SDS011;12504;52.870;8.798;2023-11-21T09:54:06;15.40;;;7.55;;
24383;SDS011;12504;52.870;8.798;2023-11-21T09:56:33;16.10;;;8.00;;
24383;SDS011;12504;52.870;8.798;2023-11-21T09:59:01;15.98;;;7.10;;
24383;SDS011;12504;52.870;8.798;2023-11-21T10:01:32;15.75;;;6.80;;
24383;SDS011;12504;52.870;8.798;2023-11-21T10:03:58;16.52;;;8.52;;
24383;SDS011;12504;52.870;8.798;2023-11-21T10:06:25;15.98;;;7.30;;
24383;SDS011;12504;52.870;8.798;2023-11-21T10:08:52;18.85;;;8.02;;
24383;SDS011;12504;52.870;8.798;2023-11-21T10:11:23;18.33;;;8.20;;
24383;SDS011;12504;52.870;8.798;2023-11-21T10:13:54;19.48;;;7.47;;
24383;SDS011;12504;52.870;8.798;2023-11-21T10:16:22;20.25;;;8.63;;
24383;SDS011;12504;52.870;8.798;2023-11-21T10:18:51;15.10;;;7.30;;
24383;SDS011;12504;52.870;8.798;2023-11-21T10:21:19;17.63;;;7.43;;
24383;SDS011;12504;52.870;8.798;2023-11-21T10:23:45;16.60;;;7.45;;
24383;SDS011;12504;52.870;8.798;2023-11-21T10:26:12;18.42;;;7.63;;
24383;SDS011;12504;52.870;8.798;2023-11-21T10:28:41;19.02;;;7.22;;
24383;SDS011;12504;52.870;8.798;2023-11-21T10:31:07;16.98;;;7.20;;
24383;SDS011;12504;52.870;8.798;2023-11-21T10:33:34;15.20;;;6.80;;
24383;SDS011;12504;52.870;8.798;2023-11-21T10:36:00;13.18;;;6.57;;
24383;SDS011;12504;52.870;8.798;2023-11-21T10:38:27;11.10;;;6.20;;
24383;SDS011;12504;52.870;8.798;2023-11-21T10:40:55;16.35;;;7.50;;
24383;SDS011;12504;52.870;8.798;2023-11-21T10:43:24;15.00;;;6.65;;
24383;SDS011;12504;52.870;8.798;2023-11-21T10:45:50;14.38;;;6.75;;
24383;SDS011;12504;52.870;8.798;2023-11-21T10:48:16;14.20;;;7.22;;
24383;SDS011;12504;52.870;8.798;2023-11-21T10:50:43;14.85;;;7.47;;
24383;SDS011;12504;52.870;8.798;2023-11-21T10:53:09;15.85;;;7.07;;
24383;SDS011;12504;52.870;8.798;2023-11-21T10:55:37;11.65;;;5.78;;
24383;SDS011;12504;52.870;8.798;2023-11-21T10:58:03;11.73;;;6.15;;
24383;SDS011;12504;52.870;8.798;2023-11-21T11:00:31;13.88;;;7.03;;
24383;SDS011;12504;52.870;8.798;2023-11-21T11:02:57;11.18;;;6.25;;
24383;SDS011;12504;52.870;8.798;2023-11-21T11:05:24;12.93;;;6.00;;
24383;SDS011;12504;52.870;8.798;2023-11-21T11:07:51;17.73;;;8.10;;
24383;SDS011;12504;52.870;8.798;2023-11-21T11:10:20;20.42;;;7.45;;
24383;SDS011;12504;52.870;8.798;2023-11-21T11:12:48;18.83;;;7.43;;
24383;SDS011;12504;52.870;8.798;2023-11-21T11:15:15;16.85;;;8.15;;
24383;SDS011;12504;52.870;8.798;2023-11-21T11:17:41;17.52;;;8.38;;
24383;SDS011;12504;52.870;8.798;2023-11-21T11:20:10;12.98;;;6.53;;
24383;SDS011;12504;52.870;8.798;2023-11-21T11:22:41;16.33;;;6.90;;
24383;SDS011;12504;52.870;8.798;2023-11-21T11:25:19;12.82;;;6.85;;
24383;SDS011;12504;52.870;8.798;2023-11-21T11:27:55;13.10;;;6.83;;
24383;SDS011;12504;52.870;8.798;2023-11-21T11:30:31;12.07;;;6.28;;
24383;SDS011;12504;52.870;8.798;2023-11-21T11:33:12;12.57;;;6.28;;
24383;SDS011;12504;52.870;8.798;2023-11-21T11:38:12;12.38;;;7.13;;
24383;SDS011;12504;52.870;8.798;2023-11-21T11:40:45;15.30;;;6.57;;
24383;SDS011;12504;52.870;8.798;2023-11-21T11:43:11;14.02;;;7.13;;
24383;SDS011;12504;52.870;8.798;2023-11-21T11:45:37;15.05;;;6.57;;
24383;SDS011;12504;52.870;8.798;2023-11-21T11:48:07;17.42;;;7.25;;
24383;SDS011;12504;52.870;8.798;2023-11-21T11:50:33;11.82;;;6.07;;
24383;SDS011;12504;52.870;8.798;2023-11-21T11:53:15;10.77;;;6.22;;
24383;SDS011;12504;52.870;8.798;2023-11-21T11:55:42;15.23;;;6.53;;
24383;SDS011;12504;52.870;8.798;2023-11-21T11:58:09;14.93;;;6.88;;
24383;SDS011;12504;52.870;8.798;2023-11-21T12:00:36;12.55;;;6.38;;
24383;SDS011;12504;52.870;8.798;2023-11-21T12:03:05;12.18;;;6.20;;
24383;SDS011;12504;52.870;8.798;2023-11-21T12:05:33;13.50;;;6.82;;
24383;SDS011;12504;52.870;8.798;2023-11-21T12:08:07;13.93;;;7.53;;
24383;SDS011;12504;52.870;8.798;2023-11-21T12:10:34;12.30;;;7.18;;
24383;SDS011;12504;52.870;8.798;2023-11-21T12:13:01;15.60;;;7.20;;
24383;SDS011;12504;52.870;8.798;2023-11-21T12:15:28;13.52;;;6.05;;
24383;SDS011;12504;52.870;8.798;2023-11-21T12:17:57;10.43;;;6.68;;
24383;SDS011;12504;52.870;8.798;2023-11-21T12:20:26;16.88;;;7.03;;
24383;SDS011;12504;52.870;8.798;2023-11-21T12:22:53;15.15;;;6.68;;
24383;SDS011;12504;52.870;8.798;2023-11-21T12:25:26;14.43;;;6.63;;
24383;SDS011;12504;52.870;8.798;2023-11-21T12:28:00;17.00;;;7.47;;
24383;SDS011;12504;52.870;8.798;2023-11-21T12:30:26;15.95;;;6.93;;
24383;SDS011;12504;52.870;8.798;2023-11-21T12:32:55;17.70;;;7.63;;
24383;SDS011;12504;52.870;8.798;2023-11-21T12:35:22;15.93;;;7.68;;
24383;SDS011;12504;52.870;8.798;2023-11-21T12:37:48;20.25;;;7.85;;
24383;SDS011;12504;52.870;8.798;2023-11-21T12:40:14;14.50;;;8.25;;
24383;SDS011;12504;52.870;8.798;2023-11-21T12:42:42;13.73;;;7.40;;
24383;SDS011;12504;52.870;8.798;2023-11-21T12:45:18;21.40;;;9.50;;
24383;SDS011;12504;52.870;8.798;2023-11-21T12:47:45;13.02;;;8.00;;
24383;SDS011;12504;52.870;8.798;2023-11-21T12:50:12;17.52;;;8.35;;
24383;SDS011;12504;52.870;8.798;2023-11-21T12:52:41;16.83;;;8.63;;
24383;SDS011;12504;52.870;8.798;2023-11-21T12:55:09;14.20;;;7.40;;
24383;SDS011;12504;52.870;8.798;2023-11-21T12:57:40;14.63;;;8.15;;
24383;SDS011;12504;52.870;8.798;2023-11-21T13:00:08;16.02;;;7.10;;
24383;SDS011;12504;52.870;8.798;2023-11-21T13:02:38;14.25;;;7.40;;
24383;SDS011;12504;52.870;8.798;2023-11-21T13:05:08;12.32;;;8.18;;
24383;SDS011;12504;52.870;8.798;2023-11-21T13:07:43;16.85;;;7.57;;
24383;SDS011;12504;52.870;8.798;2023-11-21T13:10:13;14.20;;;8.20;;
24383;SDS011;12504;52.870;8.798;2023-11-21T13:12:45;13.52;;;7.55;;
24383;SDS011;12504;52.870;8.798;2023-11-21T13:15:16;10.27;;;6.88;;
24383;SDS011;12504;52.870;8.798;2023-11-21T13:17:43;12.70;;;7.13;;
24383;SDS011;12504;52.870;8.798;2023-11-21T13:20:13;12.45;;;7.75;;
24383;SDS011;12504;52.870;8.798;2023-11-21T13:22:49;17.25;;;7.35;;
24383;SDS011;12504;52.870;8.798;2023-11-21T13:25:17;12.32;;;6.07;;
24383;SDS011;12504;52.870;8.798;2023-11-21T13:27:44;13.68;;;6.80;;
24383;SDS011;12504;52.870;8.798;2023-11-21T13:30:11;11.30;;;6.45;;
24383;SDS011;12504;52.870;8.798;2023-11-21T13:32:40;14.40;;;7.47;;
24383;SDS011;12504;52.870;8.798;2023-11-21T13:35:06;13.35;;;7.22;;
24383;SDS011;12504;52.870;8.798;2023-11-21T13:37:33;15.05;;;6.65;;
24383;SDS011;12504;52.870;8.798;2023-11-21T13:39:59;13.15;;;6.90;;
24383;SDS011;12504;52.870;8.798;2023-11-21T13:42:28;13.48;;;7.38;;
24383;SDS011;12504;52.870;8.798;2023-11-21T13:44:58;13.40;;;6.55;;
24383;SDS011;12504;52.870;8.798;2023-11-21T13:47:24;11.98;;;6.82;;
24383;SDS011;12504;52.870;8.798;2023-11-21T13:49:54;14.48;;;6.65;;
24383;SDS011;12504;52.870;8.798;2023-11-21T13:52:20;13.60;;;5.78;;
24383;SDS011;12504;52.870;8.798;2023-11-21T13:54:51;12.48;;;6.30;;
24383;SDS011;12504;52.870;8.798;2023-11-21T13:57:17;12.40;;;6.13;;
24383;SDS011;12504;52.870;8.798;2023-11-21T13:59:45;13.27;;;6.38;;
24383;SDS011;12504;52.870;8.798;2023-11-21T14:02:10;10.55;;;5.60;;
24383;SDS011;12504;52.870;8.798;2023-11-21T14:04:53;9.65;;;4.97;;
24383;SDS011;12504;52.870;8.798;2023-11-21T14:07:24;11.32;;;4.85;;
24383;SDS011;12504;52.870;8.798;2023-11-21T14:09:57;10.52;;;4.88;;
24383;SDS011;12504;52.870;8.798;2023-11-21T14:12:24;9.55;;;4.97;;
24383;SDS011;12504;52.870;8.798;2023-11-21T14:14:49;9.02;;;4.93;;
24383;SDS011;12504;52.870;8.798;2023-11-21T14:17:15;12.77;;;5.25;;
24383;SDS011;12504;52.870;8.798;2023-11-21T14:19:41;6.63;;;4.35;;
24383;SDS011;12504;52.870;8.798;2023-11-21T14:22:11;6.43;;;4.32;;
24383;SDS011;12504;52.870;8.798;2023-11-21T14:24:37;8.07;;;4.78;;
24383;SDS011;12504;52.870;8.798;2023-11-21T14:27:09;8.13;;;3.90;;
24383;SDS011;12504;52.870;8.798;2023-11-21T14:29:35;9.98;;;4.72;;
24383;SDS011;12504;52.870;8.798;2023-11-21T14:32:04;8.02;;;3.72;;
24383;SDS011;12504;52.870;8.798;2023-11-21T14:34:30;5.75;;;3.38;;
24383;SDS011;12504;52.870;8.798;2023-11-21T14:36:56;9.60;;;4.70;;